Time;durP1;ratioP1;P1;durP2;ratioP2;P2;SDS_P1;SDS_P2;PMS_P1;PMS_P2;Temp;Humidity;BMP_temperature;BMP_pressure;BME280_temperature;BME280_humidity;BME280_pressure;Samples;Min_cycle;Max_cycle;Signal;HPM_P1;HPM_P2
2023/09/11 00:00:37;;;;;;;;;;;;;;;17.76;74.28;100537.19;4944082;28;5378;-75
2023/09/11 00:03:30;;;;;;;;;;;;;;;17.76;73.98;100532.53;4952610;28;5095;-74
2023/09/11 00:06:21;;;;;;;;;;;;;;;17.76;74.41;100534.47;4948467;28;5237;-75
2023/09/11 00:09:14;;;;;;;;;;;;;;;17.75;74.06;100527.38;4943884;28;2130;-75
2023/09/11 00:12:05;;;;;;;;;;;;;;;17.76;74.07;100531.72;4943105;28;2475;-75
2023/09/11 00:14:57;;;;;;;;;;;;;;;17.75;74.08;100525.47;4951920;28;2420;-76
2023/09/11 00:17:49;;;;;;;;;;;;;;;17.75;73.96;100525.47;4953365;28;5163;-74
2023/09/11 00:20:41;;;;;;;;;;;;;;;17.75;74.16;100519.22;4943191;28;2239;-76
2023/09/11 00:23:33;;;;;;;;;;;;;;;17.74;74.15;100518.41;4944077;28;2176;-75
2023/09/11 00:26:26;;;;;;;;;;;;;;;17.75;73.92;100500.16;4942551;28;2213;-75
2023/09/11 00:29:17;;;;;;;;;;;;;;;17.74;73.95;100504.78;4944080;28;2198;-76
2023/09/11 00:32:09;;;;;;;;;;;;;;;17.73;74.14;100508.56;4946273;28;2510;-76
2023/09/11 00:35:01;;;;;;;;;;;;;;;17.73;73.83;100508.56;4949136;28;2200;-74
2023/09/11 00:37:53;;;;;;;;;;;;;;;17.74;73.85;100510.22;4943153;28;2373;-76
2023/09/11 00:40:46;;;;;;;;;;;;;;;17.74;73.91;100509.41;4943666;28;2164;-75
2023/09/11 00:43:37;;;;;;;;;;;;;;;17.74;73.97;100506.69;4942667;28;2475;-75
2023/09/11 00:46:30;;;;;;;;;;;;;;;17.73;74.07;100488.69;4944274;28;2239;-74
2023/09/11 00:49:21;;;;;;;;;;;;;;;17.74;73.87;100498.53;4950550;28;2176;-76
2023/09/11 00:52:13;;;;;;;;;;;;;;;17.73;74.02;100489.50;4944053;28;2293;-75
2023/09/11 00:55:06;;;;;;;;;;;;;;;17.73;73.80;100496.88;4944148;28;2498;-76
2023/09/11 00:57:57;;;;;;;;;;;;;;;17.72;74.02;100504.22;4944945;28;2164;-75
2023/09/11 01:00:50;;;;;;;;;;;;;;;17.72;73.98;100504.22;4946839;28;2479;-75
2023/09/11 01:03:41;;;;;;;;;;;;;;;17.71;74.02;100497.16;4946751;28;2144;-74
2023/09/11 01:06:33;;;;;;;;;;;;;;;17.72;74.12;100479.72;4954033;28;2420;-75
2023/09/11 01:09:26;;;;;;;;;;;;;;;17.70;73.90;100479.16;4946257;28;2127;-75
2023/09/11 01:12:17;;;;;;;;;;;;;;;17.72;73.76;100474.25;4952636;28;2475;-76
2023/09/11 01:15:09;;;;;;;;;;;;;;;17.70;73.68;100471.78;4959003;28;2215;-75
2023/09/11 01:18:00;;;;;;;;;;;;;;;17.71;73.90;100467.19;4946672;28;2557;-74
2023/09/11 01:20:53;;;;;;;;;;;;;;;17.71;73.51;100467.19;4952089;28;2145;-74
2023/09/11 01:23:45;;;;;;;;;;;;;;;17.71;73.67;100467.19;4948742;28;2236;-75
2023/09/11 01:26:36;;;;;;;;;;;;;;;17.70;73.64;100458.16;4947708;28;2237;-77
2023/09/11 01:29:28;;;;;;;;;;;;;;;17.70;73.58;100454.63;4948832;28;2459;-74
2023/09/11 01:32:21;;;;;;;;;;;;;;;17.70;73.83;100449.19;4951639;28;2300;-77
2023/09/11 01:35:12;;;;;;;;;;;;;;;17.70;73.93;100457.38;4951691;28;2478;-75
2023/09/11 01:38:04;;;;;;;;;;;;;;;17.69;73.66;100442.13;4948181;28;2264;-75
2023/09/11 01:40:56;;;;;;;;;;;;;;;17.69;73.72;100444.84;4946851;28;2223;-76
2023/09/11 01:43:48;;;;;;;;;;;;;;;17.68;73.49;100438.59;4971773;28;2125;-75
2023/09/11 01:46:40;;;;;;;;;;;;;;;17.68;73.78;100433.13;4971553;28;1497;-75
2023/09/11 01:49:32;;;;;;;;;;;;;;;17.68;73.53;100438.59;4975831;28;1911;-75
2023/09/11 01:52:24;;;;;;;;;;;;;;;17.69;73.42;100440.22;4973438;28;1584;-74
2023/09/11 01:55:16;;;;;;;;;;;;;;;17.68;73.47;100426.88;4974788;28;1170;-76
2023/09/11 01:58:07;;;;;;;;;;;;;;;17.68;73.43;100424.16;4966284;28;1352;-75
2023/09/11 02:01:00;;;;;;;;;;;;;;;17.68;73.37;100424.97;4966931;28;1884;-75
2023/09/11 02:03:52;;;;;;;;;;;;;;;17.69;73.45;100420.34;4976720;28;1791;-75
2023/09/11 02:06:44;;;;;;;;;;;;;;;17.68;73.42;100413.25;4972669;28;1529;-77
2023/09/11 02:09:37;;;;;;;;;;;;;;;17.68;73.58;100413.25;4968761;28;1900;-74
2023/09/11 02:12:29;;;;;;;;;;;;;;;17.68;73.67;100403.19;4971746;28;975;-75
2023/09/11 02:15:22;;;;;;;;;;;;;;;17.68;73.40;100410.53;4957658;28;2450;-76
2023/09/11 02:18:13;;;;;;;;;;;;;;;17.68;73.55;100410.53;4950171;28;2164;-76
2023/09/11 02:21:05;;;;;;;;;;;;;;;17.67;73.55;100411.59;4946534;28;2165;-76
2023/09/11 02:23:57;;;;;;;;;;;;;;;17.66;73.36;100416.25;4949568;28;2138;-77
2023/09/11 02:26:50;;;;;;;;;;;;;;;17.67;73.38;100411.59;4948115;28;2303;-75
2023/09/11 02:29:41;;;;;;;;;;;;;;;17.66;73.36;100408.06;4943003;28;5681;-75
2023/09/11 02:32:33;;;;;;;;;;;;;;;17.66;73.36;100405.34;4944842;28;5154;-76
2023/09/11 02:35:25;;;;;;;;;;;;;;;17.67;73.27;100395.25;4945350;28;2188;-75
2023/09/11 02:38:17;;;;;;;;;;;;;;;17.66;73.39;100407.25;4947179;28;2276;-75
2023/09/11 02:41:09;;;;;;;;;;;;;;;17.66;73.28;100408.06;4945392;28;2274;-75
2023/09/11 02:44:01;;;;;;;;;;;;;;;17.66;73.26;100410.78;4957288;28;2336;-77
2023/09/11 02:46:53;;;;;;;;;;;;;;;17.66;73.33;100412.69;4945890;28;2428;-76
2023/09/11 02:49:45;;;;;;;;;;;;;;;17.67;73.32;100422.50;4947387;28;5117;-76
2023/09/11 02:52:37;;;;;;;;;;;;;;;17.65;73.28;100420.06;4951183;28;2152;-76
2023/09/11 02:55:29;;;;;;;;;;;;;;;17.66;73.29;100415.44;4946227;28;2181;-77
2023/09/11 02:58:21;;;;;;;;;;;;;;;17.65;73.38;100414.63;4945691;28;2181;-77
2023/09/11 03:01:13;;;;;;;;;;;;;;;17.65;73.16;100411.88;4945831;28;2179;-76
2023/09/11 03:04:05;;;;;;;;;;;;;;;17.65;73.28;100420.06;4964745;28;2169;-75
2023/09/11 03:06:57;;;;;;;;;;;;;;;17.63;73.15;100416.78;4972325;28;1363;-76
2023/09/11 03:09:48;;;;;;;;;;;;;;;17.65;73.10;100433.69;4966342;28;1898;-75
2023/09/11 03:12:40;;;;;;;;;;;;;;;17.65;73.46;100428.22;4963726;28;2299;-75
2023/09/11 03:15:32;;;;;;;;;;;;;;;17.65;73.42;100432.88;4972379;28;1814;-77
2023/09/11 03:18:24;;;;;;;;;;;;;;;17.64;73.16;100426.56;4955958;28;2093;-76
2023/09/11 03:21:16;;;;;;;;;;;;;;;17.64;73.25;100421.13;4946330;28;2196;-75
2023/09/11 03:24:08;;;;;;;;;;;;;;;17.64;72.98;100398.53;4951053;28;2232;-75
2023/09/11 03:27:01;;;;;;;;;;;;;;;17.64;73.31;100393.09;4946028;28;2419;-76
2023/09/11 03:29:52;;;;;;;;;;;;;;;17.64;73.03;100393.91;4946339;28;2196;-76
2023/09/11 03:32:44;;;;;;;;;;;;;;;17.63;73.30;100389.53;4947331;28;2177;-76
2023/09/11 03:35:37;;;;;;;;;;;;;;;17.63;73.01;100397.72;4944557;28;2280;-75
2023/09/11 03:38:28;;;;;;;;;;;;;;;17.64;73.07;100385.72;4949146;28;2482;-76
2023/09/11 03:41:21;;;;;;;;;;;;;;;17.63;73.22;100378.66;4946827;28;2217;-76
2023/09/11 03:44:12;;;;;;;;;;;;;;;17.63;73.23;100373.22;4951768;28;2229;-77
2023/09/11 03:47:04;;;;;;;;;;;;;;;17.63;73.08;100373.22;4948331;28;2439;-76
2023/09/11 03:49:56;;;;;;;;;;;;;;;17.62;73.04;100368.88;4944546;28;2180;-76
2023/09/11 03:52:48;;;;;;;;;;;;;;;17.62;73.10;100366.13;4947643;28;2148;-76
2023/09/11 03:55:40;;;;;;;;;;;;;;;17.62;72.98;100360.69;4945865;28;2167;-76
2023/09/11 03:58:32;;;;;;;;;;;;;;;17.61;73.02;100356.31;4943295;28;2531;-75
2023/09/11 04:01:24;;;;;;;;;;;;;;;17.61;72.96;100355.50;4943595;28;2412;-77
2023/09/11 04:04:16;;;;;;;;;;;;;;;17.62;73.01;100357.97;4944474;28;2173;-77
2023/09/11 04:07:08;;;;;;;;;;;;;;;17.26;73.01;100302.66;4944857;28;2417;-75
2023/09/11 04:10:01;;;;;;;;;;;;;;;17.61;72.99;100350.06;4948833;28;2499;-78
2023/09/11 04:12:58;;;;;;;;;;;;;;;17.61;72.87;100353.59;4942363;28;2425;-77
2023/09/11 04:15:50;;;;;;;;;;;;;;;17.61;73.06;100345.41;4952531;28;2120;-78
2023/09/11 04:18:42;;;;;;;;;;;;;;;17.60;72.99;100349.25;4949554;28;2193;-74
2023/09/11 04:21:34;;;;;;;;;;;;;;;17.62;73.07;100349.00;4943856;28;2137;-75
2023/09/11 04:24:25;;;;;;;;;;;;;;;17.61;73.09;100352.78;4948683;28;2129;-75
2023/09/11 04:27:17;;;;;;;;;;;;;;;17.61;72.93;100350.06;4966759;28;2127;-74
2023/09/11 04:30:10;;;;;;;;;;;;;;;17.61;72.68;100348.16;4963504;28;1969;-76
2023/09/11 04:33:02;;;;;;;;;;;;;;;17.61;73.07;100339.97;4965857;28;1674;-76
2023/09/11 04:35:54;;;;;;;;;;;;;;;17.61;72.95;100341.88;4965131;28;1114;-76
2023/09/11 04:38:46;;;;;;;;;;;;;;;17.60;72.88;100338.34;4961790;28;1440;-77
2023/09/11 04:41:38;;;;;;;;;;;;;;;17.60;73.02;100338.34;4965885;28;892;-75
2023/09/11 04:44:30;;;;;;;;;;;;;;;17.60;72.75;100345.72;4968012;28;1749;-75
2023/09/11 04:47:22;;;;;;;;;;;;;;;17.60;72.96;100351.16;4964334;28;1532;-75
2023/09/11 04:50:16;;;;;;;;;;;;;;;17.58;72.80;100351.41;4960621;28;1978;-74
2023/09/11 04:53:07;;;;;;;;;;;;;;;17.60;73.12;100351.16;4963784;28;944;-75
2023/09/11 04:55:58;;;;;;;;;;;;;;;17.59;72.73;100344.06;4949969;28;2184;-76
2023/09/11 04:58:51;;;;;;;;;;;;;;;17.59;72.81;100342.19;4944782;28;2456;-77
2023/09/11 05:01:42;;;;;;;;;;;;;;;17.59;72.77;100341.34;4948773;28;5255;-76
2023/09/11 05:04:35;;;;;;;;;;;;;;;17.59;73.05;100338.59;4962422;28;2148;-75
2023/09/11 05:07:27;;;;;;;;;;;;;;;17.58;72.74;100334.25;4969780;28;5078;-75
2023/09/11 05:10:18;;;;;;;;;;;;;;;17.59;72.73;100347.63;4963124;28;1899;-75
2023/09/11 05:13:10;;;;;;;;;;;;;;;17.58;72.83;100345.16;4960189;28;1348;-76
2023/09/11 05:16:01;;;;;;;;;;;;;;;17.58;72.79;100342.44;4963612;28;1665;-74
2023/09/11 05:18:53;;;;;;;;;;;;;;;17.57;72.76;100336.19;4965748;28;4615;-75
2023/09/11 05:21:45;;;;;;;;;;;;;;;17.58;72.89;100334.25;4962751;28;1831;-74
2023/09/11 05:24:36;;;;;;;;;;;;;;;17.58;72.80;100336.97;4969878;28;1714;-74
2023/09/11 05:27:29;;;;;;;;;;;;;;;17.58;72.64;100326.91;4965453;28;2541;-75
2023/09/11 05:30:21;;;;;;;;;;;;;;;17.58;72.62;100332.34;4965613;28;2196;-77
2023/09/11 05:33:13;;;;;;;;;;;;;;;17.57;72.78;100332.63;4974106;28;979;-74
2023/09/11 05:36:05;;;;;;;;;;;;;;;17.57;72.75;100322.56;4960468;28;986;-74
2023/09/11 05:38:56;;;;;;;;;;;;;;;17.57;72.83;100316.31;4966250;28;1332;-75
2023/09/11 05:41:49;;;;;;;;;;;;;;;17.57;72.79;100308.13;4968275;28;2597;-77
2023/09/11 05:44:40;;;;;;;;;;;;;;;17.57;72.65;100314.38;4968824;28;1993;-74
2023/09/11 05:47:33;;;;;;;;;;;;;;;17.56;72.94;100317.38;4962479;28;1953;-76
2023/09/11 05:50:24;;;;;;;;;;;;;;;17.56;72.62;100307.31;4964701;28;1970;-76
2023/09/11 05:53:16;;;;;;;;;;;;;;;17.57;72.77;100317.13;4972526;28;1580;-76
2023/09/11 05:56:08;;;;;;;;;;;;;;;17.56;72.79;100318.22;4964949;28;1858;-78
2023/09/11 05:59:01;;;;;;;;;;;;;;;17.56;72.80;100314.66;4973056;28;967;-75
2023/09/11 06:01:53;;;;;;;;;;;;;;;17.55;72.65;100300.22;4968840;28;1498;-76
2023/09/11 06:04:44;;;;;;;;;;;;;;;17.55;72.68;100296.69;4969201;28;1527;-76
2023/09/11 06:07:37;;;;;;;;;;;;;;;17.55;72.84;100297.50;4970903;28;968;-76
2023/09/11 06:10:28;;;;;;;;;;;;;;;17.55;72.82;100297.50;4970516;28;1945;-75
2023/09/11 06:13:20;;;;;;;;;;;;;;;17.55;72.62;100302.13;4964578;28;1357;-75
2023/09/11 06:16:13;;;;;;;;;;;;;;;17.55;72.81;100310.31;4968979;28;1424;-76
2023/09/11 06:19:04;;;;;;;;;;;;;;;17.55;72.79;100313.03;4965746;28;1656;-76
2023/09/11 06:21:56;;;;;;;;;;;;;;;17.55;72.57;100315.75;4972032;28;1611;-75
2023/09/11 06:24:48;;;;;;;;;;;;;;;17.54;72.70;100311.41;4964631;28;2005;-75
2023/09/11 06:27:39;;;;;;;;;;;;;;;17.54;72.82;100319.56;4968919;28;1742;-74
2023/09/11 06:30:31;;;;;;;;;;;;;;;17.54;72.86;100308.69;4964216;28;1895;-74
2023/09/11 06:33:22;;;;;;;;;;;;;;;17.53;72.71;100301.56;4964201;28;1001;-76
2023/09/11 06:36:14;;;;;;;;;;;;;;;17.54;72.68;100306.78;4973836;28;1820;-77
2023/09/11 06:39:06;;;;;;;;;;;;;;;17.53;72.65;100307.88;4970847;28;1347;-74
2023/09/11 06:41:58;;;;;;;;;;;;;;;17.53;72.55;100293.41;4965202;28;1540;-74
2023/09/11 06:44:50;;;;;;;;;;;;;;;17.53;72.83;100296.13;4966875;28;2239;-74
2023/09/11 06:47:42;;;;;;;;;;;;;;;17.53;72.63;100299.69;4970499;28;988;-73
2023/09/11 06:50:34;;;;;;;;;;;;;;;17.53;72.90;100307.03;4963757;28;1958;-75
2023/09/11 06:53:25;;;;;;;;;;;;;;;17.53;72.61;100309.75;4965016;28;1915;-75
2023/09/11 06:56:18;;;;;;;;;;;;;;;17.53;72.75;100312.47;4961116;28;1930;-74
2023/09/11 06:59:10;;;;;;;;;;;;;;;17.53;72.51;100312.47;4968188;28;1485;-75
2023/09/11 07:02:02;;;;;;;;;;;;;;;17.53;72.55;100301.56;4966894;28;2327;-76
2023/09/11 07:04:53;;;;;;;;;;;;;;;17.52;72.60;100289.88;4963533;28;1951;-75
2023/09/11 07:07:46;;;;;;;;;;;;;;;17.53;72.57;100277.06;4966733;28;1738;-76
2023/09/11 07:10:38;;;;;;;;;;;;;;;17.52;72.86;100278.19;4955742;28;2062;-77
2023/09/11 07:13:30;;;;;;;;;;;;;;;17.52;72.77;100264.56;4948021;28;2060;-77
2023/09/11 07:16:22;;;;;;;;;;;;;;;17.52;72.66;100264.56;4949284;28;2101;-76
2023/09/11 07:19:14;;;;;;;;;;;;;;;17.51;72.73;100255.59;4970783;28;1683;-75
2023/09/11 07:22:06;;;;;;;;;;;;;;;17.52;72.54;100243.59;4964673;28;1525;-76
2023/09/11 07:24:57;;;;;;;;;;;;;;;17.51;72.66;100233.81;4962727;28;1667;-77
2023/09/11 07:27:50;;;;;;;;;;;;;;;17.51;72.81;100228.34;4963583;28;1011;-75
2023/09/11 07:30:42;;;;;;;;;;;;;;;17.52;72.60;100204.66;4963451;28;5984;-77
2023/09/11 07:33:34;;;;;;;;;;;;;;;17.51;72.66;100203.84;4968508;28;4839;-76
2023/09/11 07:36:25;;;;;;;;;;;;;;;17.51;72.67;100187.53;4964874;28;4931;-76
2023/09/11 07:39:17;;;;;;;;;;;;;;;17.50;72.66;100188.63;4967362;28;1513;-76
2023/09/11 07:42:09;;;;;;;;;;;;;;;17.51;72.64;100200.31;4968236;28;988;-75
2023/09/11 07:45:01;;;;;;;;;;;;;;;17.51;72.71;100201.13;4964878;28;1402;-74
2023/09/11 07:47:54;;;;;;;;;;;;;;;17.49;72.77;100185.06;4965450;28;1067;-77
2023/09/11 07:50:46;;;;;;;;;;;;;;;17.49;73.04;100185.06;4962774;28;1895;-75
2023/09/11 07:53:37;;;;;;;;;;;;;;;17.50;72.69;100191.34;4966704;28;1379;-76
2023/09/11 07:56:29;;;;;;;;;;;;;;;17.50;72.83;100185.91;4967863;28;1365;-75
2023/09/11 07:59:20;;;;;;;;;;;;;;;17.49;72.83;100178.81;4966102;28;1457;-73
2023/09/11 08:02:12;;;;;;;;;;;;;;;17.50;72.93;100175.00;4967766;28;2120;-75
2023/09/11 08:05:04;;;;;;;;;;;;;;;17.49;72.89;100185.06;4970904;28;1109;-75
2023/09/11 08:07:58;;;;;;;;;;;;;;;17.49;73.07;100179.63;4974031;28;978;-74
2023/09/11 08:10:49;;;;;;;;;;;;;;;17.49;72.98;100184.25;4966215;28;1954;-72
2023/09/11 08:13:41;;;;;;;;;;;;;;;17.48;73.01;100191.59;4962694;28;1617;-74
2023/09/11 08:16:32;;;;;;;;;;;;;;;17.48;72.91;100179.91;4961485;28;1593;-75
2023/09/11 08:19:24;;;;;;;;;;;;;;;17.49;72.84;100179.63;4962585;28;1613;-75
2023/09/11 08:22:16;;;;;;;;;;;;;;;17.49;72.82;100181.53;4960222;28;1525;-74
2023/09/11 08:25:09;;;;;;;;;;;;;;;17.49;72.82;100181.53;4960593;28;6299;-74
2023/09/11 08:28:01;;;;;;;;;;;;;;;17.49;73.00;100176.09;4964533;28;5442;-76
2023/09/11 08:30:53;;;;;;;;;;;;;;;17.48;72.88;100177.19;4960249;28;5280;-74
2023/09/11 08:33:45;;;;;;;;;;;;;;;17.48;72.81;100186.16;4962562;28;5582;-77
2023/09/11 08:36:37;;;;;;;;;;;;;;;17.48;72.72;100188.06;4965720;28;1526;-75
2023/09/11 08:39:29;;;;;;;;;;;;;;;17.48;72.89;100178.00;4967363;28;5051;-76
2023/09/11 08:42:21;;;;;;;;;;;;;;;17.48;72.69;100190.78;4966497;28;2721;-75
2023/09/11 08:45:12;;;;;;;;;;;;;;;17.47;72.77;100179.09;4969385;28;5393;-76
2023/09/11 08:48:04;;;;;;;;;;;;;;;17.48;72.68;100174.47;4958983;28;2293;-74
2023/09/11 08:50:56;;;;;;;;;;;;;;;17.47;72.73;100165.47;4950492;28;2528;-73
2023/09/11 08:53:48;;;;;;;;;;;;;;;17.48;72.71;100164.38;4946409;28;2250;-76
2023/09/11 08:56:40;;;;;;;;;;;;;;;17.48;72.86;100182.63;4957742;28;3187;-76
2023/09/11 08:59:32;;;;;;;;;;;;;;;16.93;72.82;100111.63;4947487;28;2272;-75
2023/09/11 09:02:23;;;;;;;;;;;;;;;17.47;72.72;100200.88;4952324;28;2158;-75
2023/09/11 09:05:16;;;;;;;;;;;;;;;17.48;72.85;100188.06;4950729;28;2091;-75
2023/09/11 09:08:08;;;;;;;;;;;;;;;17.47;72.97;100197.31;4950579;28;2127;-75
2023/09/11 09:14:05;;;;;;;;;;;;;;;17.46;73.08;100199.22;4948931;28;2181;-77
2023/09/11 09:16:58;;;;;;;;;;;;;;;17.48;73.03;100209.84;4945214;28;5400;-76
2023/09/11 09:19:50;;;;;;;;;;;;;;;17.47;73.06;100202.75;4956155;28;2316;-75
2023/09/11 09:22:42;;;;;;;;;;;;;;;17.47;72.87;100198.16;4952950;28;2214;-76
2023/09/11 09:25:34;;;;;;;;;;;;;;;17.46;73.13;100210.09;4948199;28;5151;-76
2023/09/11 09:28:26;;;;;;;;;;;;;;;17.46;72.88;100221.00;4949054;28;5458;-76
2023/09/11 09:31:18;;;;;;;;;;;;;;;17.47;73.15;100222.66;4951574;28;5618;-76
2023/09/11 09:34:10;;;;;;;;;;;;;;;17.47;73.22;100221.81;4949363;28;2526;-75
2023/09/11 09:37:02;;;;;;;;;;;;;;;17.47;73.03;100216.38;4951828;28;2145;-74
2023/09/11 09:39:54;;;;;;;;;;;;;;;17.47;73.04;100211.75;4952867;28;2185;-75
2023/09/11 09:42:45;;;;;;;;;;;;;;;17.45;72.93;100205.75;4952895;28;2223;-77
2023/09/11 09:45:38;;;;;;;;;;;;;;;17.46;73.14;100204.66;4952837;28;5563;-75
2023/09/11 09:48:31;;;;;;;;;;;;;;;17.45;73.11;100208.50;4960051;28;5578;-77
2023/09/11 09:51:24;;;;;;;;;;;;;;;17.46;73.11;100214.75;4946379;28;4139;-77
2023/09/11 09:54:16;;;;;;;;;;;;;;;17.45;73.01;100211.22;4964066;28;2593;-76
2023/09/11 09:57:08;;;;;;;;;;;;;;;17.46;73.17;100226.44;4969966;28;1668;-76
2023/09/11 10:00:00;;;;;;;;;;;;;;;17.46;73.21;100217.47;4961544;28;1677;-77
2023/09/11 10:02:51;;;;;;;;;;;;;;;17.46;73.07;100214.75;4967273;28;1855;-75
2023/09/11 10:05:44;;;;;;;;;;;;;;;17.46;73.25;100215.56;4967359;28;1638;-75
2023/09/11 10:08:35;;;;;;;;;;;;;;;17.45;73.30;100205.75;4964618;28;1545;-77
2023/09/11 10:11:27;;;;;;;;;;;;;;;17.46;73.06;100193.78;4966222;28;2363;-76
2023/09/11 10:14:18;;;;;;;;;;;;;;;17.45;73.04;100189.44;4961182;28;6268;-77
2023/09/11 10:17:10;;;;;;;;;;;;;;;17.46;73.07;100171.19;4961305;28;5228;-78
2023/09/11 10:20:02;;;;;;;;;;;;;;;17.45;73.11;100150.50;4950982;28;4614;-75
2023/09/11 10:22:53;;;;;;;;;;;;;;;17.45;73.20;100147.78;4950298;28;2416;-77
2023/09/11 10:25:45;;;;;;;;;;;;;;;17.45;73.11;100140.44;4948652;28;2398;-77
2023/09/11 10:28:37;;;;;;;;;;;;;;;17.45;73.07;100135.00;4960552;28;2479;-77
2023/09/11 10:31:28;;;;;;;;;;;;;;;17.46;73.01;100135.78;4969124;28;2366;-76
2023/09/11 10:34:21;;;;;;;;;;;;;;;17.45;73.07;100126.81;4957145;28;5400;-75
2023/09/11 10:37:12;;;;;;;;;;;;;;;17.44;72.92;100119.75;4945550;28;2447;-76
2023/09/11 10:40:03;;;;;;;;;;;;;;;17.45;72.97;100112.41;4958460;28;4964;-75
2023/09/11 10:42:56;;;;;;;;;;;;;;;17.44;73.18;100100.69;4968569;28;1258;-75
2023/09/11 10:45:48;;;;;;;;;;;;;;;17.45;72.95;100096.88;4966858;28;4564;-75
2023/09/11 10:48:39;;;;;;;;;;;;;;;17.45;73.20;100090.63;4964042;28;1501;-78
2023/09/11 10:51:31;;;;;;;;;;;;;;;17.45;73.26;100083.25;4968259;28;1964;-78
2023/09/11 10:54:23;;;;;;;;;;;;;;;17.44;73.07;100078.94;4967486;28;1020;-78
2023/09/11 10:57:15;;;;;;;;;;;;;;;17.45;73.22;100086.00;4964906;28;858;-76
2023/09/11 11:00:07;;;;;;;;;;;;;;;17.44;73.19;100084.38;4968756;28;992;-75
2023/09/11 11:02:59;;;;;;;;;;;;;;;17.45;73.30;100104.22;4961720;28;1051;-76
2023/09/11 11:05:51;;;;;;;;;;;;;;;17.44;73.21;100100.69;4947517;28;2423;-76
2023/09/11 11:08:43;;;;;;;;;;;;;;;17.44;72.98;100091.69;4945686;28;2469;-75
2023/09/11 11:11:35;;;;;;;;;;;;;;;17.44;73.02;100081.66;4948587;28;2239;-74
2023/09/11 11:14:27;;;;;;;;;;;;;;;17.44;72.98;100072.63;4948115;28;4082;-74
2023/09/11 11:17:19;;;;;;;;;;;;;;;17.44;73.32;100080.81;4950107;28;2203;-76
2023/09/11 11:20:11;;;;;;;;;;;;;;;17.45;73.01;100077.00;4948643;28;2413;-75
2023/09/11 11:23:02;;;;;;;;;;;;;;;17.44;72.98;100086.25;4948680;28;2128;-76
2023/09/11 11:25:54;;;;;;;;;;;;;;;17.44;73.03;100086.25;4951042;28;2122;-76
2023/09/11 11:28:46;;;;;;;;;;;;;;;17.43;72.99;100082.72;4949342;28;2177;-76
2023/09/11 11:31:37;;;;;;;;;;;;;;;17.44;72.99;100088.97;4945377;28;2227;-76
2023/09/11 11:34:31;;;;;;;;;;;;;;;17.44;73.13;100086.25;4945279;28;2354;-75
2023/09/11 11:37:23;;;;;;;;;;;;;;;17.45;73.06;100101.50;4949657;28;2376;-76
2023/09/11 11:40:15;;;;;;;;;;;;;;;17.45;73.22;100115.13;4953560;28;2784;-75
2023/09/11 11:43:06;;;;;;;;;;;;;;;17.45;73.07;100106.97;4967107;28;1810;-77
2023/09/11 11:45:58;;;;;;;;;;;;;;;17.44;72.99;100102.59;4949120;28;2200;-75
2023/09/11 11:48:50;;;;;;;;;;;;;;;17.44;73.01;100099.84;4963581;28;1733;-76
2023/09/11 11:51:47;;;;;;;;;;;;;;;17.45;73.30;100101.50;4973063;28;4375;-75
2023/09/11 11:54:40;;;;;;;;;;;;;;;17.44;73.24;100087.09;4967173;28;1453;-76
2023/09/11 11:57:33;;;;;;;;;;;;;;;17.43;73.28;100088.16;4965713;28;1335;-75
2023/09/11 12:00:27;;;;;;;;;;;;;;;17.44;73.21;100081.66;4970653;28;1869;-75
2023/09/11 12:03:20;;;;;;;;;;;;;;;17.45;73.24;100079.72;4968308;28;1840;-75
2023/09/11 12:06:16;;;;;;;;;;;;;;;17.44;73.13;100080.81;4966387;28;1517;-75
2023/09/11 12:09:09;;;;;;;;;;;;;;;17.43;73.28;100071.03;4965881;28;3954;-76
2023/09/11 12:12:03;;;;;;;;;;;;;;;17.44;73.19;100072.63;4965222;28;1967;-74
2023/09/11 12:15:00;;;;;;;;;;;;;;;17.45;73.39;100060.69;4959471;28;1501;-75
2023/09/11 12:17:52;;;;;;;;;;;;;;;17.45;73.11;100071.56;4964194;28;2227;-75
2023/09/11 12:20:44;;;;;;;;;;;;;;;17.43;73.18;100066.38;4946626;28;5195;-76
2023/09/11 12:23:36;;;;;;;;;;;;;;;17.44;73.37;100065.31;4949375;28;3977;-76
2023/09/11 12:26:28;;;;;;;;;;;;;;;17.44;73.22;100069.91;4945457;28;4922;-75
2023/09/11 12:29:20;;;;;;;;;;;;;;;17.45;73.42;100061.50;4956700;28;2329;-77
2023/09/11 12:32:12;;;;;;;;;;;;;;;17.44;73.23;100051.69;4962600;28;5473;-74
2023/09/11 12:35:04;;;;;;;;;;;;;;;17.45;73.29;100066.13;4961910;28;5135;-75
2023/09/11 12:37:56;;;;;;;;;;;;;;;17.44;73.40;100054.44;4957454;28;2408;-76
2023/09/11 12:40:48;;;;;;;;;;;;;;;17.43;73.47;100039.16;4962560;28;2522;-74
2023/09/11 12:43:39;;;;;;;;;;;;;;;17.44;73.27;100031.81;4967152;28;2990;-76
2023/09/11 12:46:31;;;;;;;;;;;;;;;17.44;73.36;100039.97;4956900;28;2516;-74
2023/09/11 12:49:26;;;;;;;;;;;;;;;17.44;73.20;100038.09;4963792;28;1855;-75
2023/09/11 12:52:18;;;;;;;;;;;;;;;17.44;73.26;100042.69;4959029;28;2265;-74
2023/09/11 12:55:10;;;;;;;;;;;;;;;17.44;73.50;100035.38;4963720;28;2863;-75
2023/09/11 12:58:02;;;;;;;;;;;;;;;17.44;73.48;100042.69;4976097;28;2357;-75
2023/09/11 13:00:54;;;;;;;;;;;;;;;17.44;73.17;100048.13;4970186;28;2349;-75
2023/09/11 13:03:47;;;;;;;;;;;;;;;17.42;73.24;100048.44;4959758;28;1665;-76
2023/09/11 13:06:38;;;;;;;;;;;;;;;17.43;73.50;100050.06;4965695;28;1752;-74
2023/09/11 13:09:30;;;;;;;;;;;;;;;17.44;73.29;100054.44;4950258;28;2592;-75
2023/09/11 13:12:23;;;;;;;;;;;;;;;17.43;73.22;100052.78;4962158;28;2469;-76
2023/09/11 13:15:15;;;;;;;;;;;;;;;17.43;73.25;100050.06;4943791;28;2636;-75
2023/09/11 13:18:07;;;;;;;;;;;;;;;17.43;73.40;100044.59;4944865;28;2484;-75
2023/09/11 13:20:59;;;;;;;;;;;;;;;17.44;73.23;100040.81;4947317;28;2408;-77
2023/09/11 13:23:50;;;;;;;;;;;;;;;17.44;73.14;100045.41;4957805;28;2645;-76
2023/09/11 13:26:42;;;;;;;;;;;;;;;17.44;73.35;100042.69;4945036;28;2671;-76
2023/09/11 13:29:34;;;;;;;;;;;;;;;17.44;73.11;100042.69;4959095;28;2481;-75
2023/09/11 13:32:25;;;;;;;;;;;;;;;17.43;73.40;100024.75;4958096;28;2448;-75
2023/09/11 13:35:17;;;;;;;;;;;;;;;17.43;73.29;100019.31;4946603;28;2735;-75
2023/09/11 13:38:09;;;;;;;;;;;;;;;17.44;73.34;100018.19;4944188;28;2724;-73
2023/09/11 13:41:01;;;;;;;;;;;;;;;17.44;73.54;100012.75;4944417;28;2695;-75
2023/09/11 13:43:53;;;;;;;;;;;;;;;17.43;73.42;100006.50;4944235;28;2529;-74
2023/09/11 13:46:45;;;;;;;;;;;;;;;17.43;73.36;100000.25;4946385;28;2682;-76
2023/09/11 13:49:37;;;;;;;;;;;;;;;17.43;73.23;100009.22;4945331;28;2628;-74
2023/09/11 13:52:29;;;;;;;;;;;;;;;17.43;73.47;100001.06;4948212;28;2668;-73
2023/09/11 13:55:21;;;;;;;;;;;;;;;17.43;73.47;99998.34;4943367;28;2668;-75
2023/09/11 13:58:13;;;;;;;;;;;;;;;17.43;73.28;99992.09;4947516;28;2688;-74
2023/09/11 14:01:05;;;;;;;;;;;;;;;17.43;73.47;99987.44;4940704;28;2322;-76
2023/09/11 14:03:57;;;;;;;;;;;;;;;17.43;73.49;99982.00;4940847;28;2389;-76
2023/09/11 14:06:49;;;;;;;;;;;;;;;17.43;73.51;99975.75;4945281;28;2465;-77
2023/09/11 14:09:41;;;;;;;;;;;;;;;17.43;73.27;99960.22;4954058;28;2663;-74
2023/09/11 14:12:33;;;;;;;;;;;;;;;17.43;73.51;99970.31;4961971;28;2374;-74
2023/09/11 14:15:25;;;;;;;;;;;;;;;17.43;73.41;99971.13;4943842;28;2449;-76
2023/09/11 14:18:17;;;;;;;;;;;;;;;17.43;73.46;99964.84;4947859;28;2394;-74
2023/09/11 14:21:09;;;;;;;;;;;;;;;17.43;73.37;99962.13;4946597;28;2605;-76
2023/09/11 14:24:01;;;;;;;;;;;;;;;17.42;73.47;99966.78;4942345;28;2437;-75
2023/09/11 14:26:53;;;;;;;;;;;;;;;17.42;73.53;99977.66;4952421;28;2444;-77
2023/09/11 14:29:45;;;;;;;;;;;;;;;17.42;73.61;99964.06;4942488;28;2733;-74
2023/09/11 14:32:37;;;;;;;;;;;;;;;17.43;73.37;99964.84;4943640;28;2459;-75
2023/09/11 14:35:28;;;;;;;;;;;;;;;17.43;73.49;99956.69;4942164;28;2612;-75
2023/09/11 14:38:20;;;;;;;;;;;;;;;17.43;73.49;99967.59;4943170;28;2618;-76
2023/09/11 14:41:12;;;;;;;;;;;;;;;17.42;73.61;99966.78;4953459;28;2482;-76
2023/09/11 14:44:04;;;;;;;;;;;;;;;17.42;73.65;99969.50;4950373;28;2513;-76
2023/09/11 14:46:56;;;;;;;;;;;;;;;17.41;73.53;99981.50;4965360;28;1730;-76
2023/09/11 14:49:48;;;;;;;;;;;;;;;17.42;73.54;99979.56;4956543;28;2599;-77
2023/09/11 14:52:40;;;;;;;;;;;;;;;17.41;73.50;99981.50;4958412;28;2520;-75
2023/09/11 14:55:32;;;;;;;;;;;;;;;17.42;73.63;99980.38;4963402;28;2087;-74
2023/09/11 14:58:24;;;;;;;;;;;;;;;17.41;73.34;99967.88;4953109;28;2188;-75